Time;durP1;ratioP1;P1;durP2;ratioP2;P2;SDS_P1;SDS_P2;PMS_P1;PMS_P2;Temp;Humidity;BMP_temperature;BMP_pressure;BME280_temperature;BME280_humidity;BME280_pressure;Samples;Min_cycle;Max_cycle;Signal;HPM_P1;HPM_P2
2021/03/17 00:01:41;;;;;;;3.85;2.15;;;;;;;2.14;70.48;101854.00;5126876;28;20019;-76
2021/03/17 00:04:06;;;;;;;2.70;1.98;;;;;;;2.13;70.12;101854.22;5112864;28;20034;-76
2021/03/17 00:06:32;;;;;;;4.60;2.10;;;;;;;2.11;70.44;101849.00;5131309;28;20023;-77
2021/03/17 00:08:57;;;;;;;5.97;2.53;;;;;;;2.09;70.32;101856.44;5130779;28;20349;-74
2021/03/17 00:11:23;;;;;;;3.05;2.38;;;;;;;2.06;70.51;101859.50;5132317;28;20461;-75
2021/03/17 00:13:48;;;;;;;4.95;3.47;;;;;;;2.06;70.69;101861.38;5131387;28;20053;-76
2021/03/17 00:16:14;;;;;;;6.10;3.30;;;;;;;2.06;70.56;101862.19;5132782;28;20030;-75
2021/03/17 00:18:39;;;;;;;4.00;2.95;;;;;;;2.04;70.78;101858.84;5111856;28;20387;-76
2021/03/17 00:21:04;;;;;;;3.80;2.72;;;;;;;2.01;71.18;101861.94;5131436;28;20487;-75
2021/03/17 00:23:30;;;;;;;6.07;2.90;;;;;;;2.02;70.74;101860.06;5111890;28;20388;-76
2021/03/17 00:25:55;;;;;;;4.63;3.40;;;;;;;2.04;70.49;101863.41;5131279;27;20034;-76
2021/03/17 00:28:21;;;;;;;6.30;4.10;;;;;;;2.05;71.08;101862.41;5133346;27;20027;-75
2021/03/17 00:30:46;;;;;;;7.85;5.03;;;;;;;2.03;70.53;101873.34;5116034;27;20027;-76
2021/03/17 00:33:13;;;;;;;8.00;4.85;;;;;;;2.03;70.66;101873.34;5134295;27;20027;-75
2021/03/17 00:35:38;;;;;;;5.72;5.10;;;;;;;2.04;70.78;101869.63;5135707;27;20019;-75
2021/03/17 00:38:04;;;;;;;5.57;3.97;;;;;;;2.06;70.98;101870.25;5108764;27;20490;-74
2021/03/17 00:40:29;;;;;;;4.70;4.07;;;;;;;2.08;71.03;101875.47;5131632;27;20107;-76
2021/03/17 00:42:55;;;;;;;8.25;4.20;;;;;;;2.08;71.43;101870.91;5115382;27;20434;-76
2021/03/17 00:45:20;;;;;;;6.03;5.40;;;;;;;2.10;71.43;101879.63;5118067;27;20027;-76
2021/03/17 00:47:46;;;;;;;8.82;5.55;;;;;;;2.11;71.12;101873.22;5116018;27;20042;-75
2021/03/17 00:50:12;;;;;;;5.45;4.95;;;;;;;2.11;71.59;101870.53;5111891;27;20034;-76
2021/03/17 00:52:38;;;;;;;5.68;4.68;;;;;;;2.13;71.42;101873.88;5132383;27;20114;-75
2021/03/17 00:55:04;;;;;;;5.20;4.72;;;;;;;2.15;71.38;101879.88;5135128;27;20565;-76
2021/03/17 00:57:29;;;;;;;8.90;5.90;;;;;;;2.18;71.59;101879.50;5098408;27;20035;-77
2021/03/17 00:59:55;;;;;;;8.07;4.88;;;;;;;2.20;71.29;101880.13;5131139;27;20033;-75
2021/03/17 01:02:20;;;;;;;6.10;5.13;;;;;;;2.20;72.03;101880.13;5116188;27;20487;-79
2021/03/17 01:04:46;;;;;;;6.43;5.10;;;;;;;2.21;71.93;101879.13;5117629;27;20030;-74
2021/03/17 01:07:18;;;;;;;8.38;5.97;;;;;;;2.21;71.86;101883.69;5116538;27;20071;-76
2021/03/17 01:09:44;;;;;;;6.75;5.40;;;;;;;2.21;71.75;101881.00;5100843;27;20027;-75
2021/03/17 01:12:09;;;;;;;6.10;5.05;;;;;;;2.25;71.69;101876.03;5097720;27;20028;-76
2021/03/17 01:14:35;;;;;;;7.18;5.03;;;;;;;2.27;72.45;101880.22;5100150;27;20011;-75
2021/03/17 01:17:01;;;;;;;9.43;5.60;;;;;;;2.30;71.87;101884.38;5134501;27;20460;-75
2021/03/17 01:19:26;;;;;;;8.93;4.90;;;;;;;2.32;72.41;101890.38;5099862;27;20031;-76
2021/03/17 01:21:51;;;;;;;8.48;5.78;;;;;;;2.32;71.98;101893.94;5113008;28;20019;-75
2021/03/17 01:24:17;;;;;;;5.88;5.28;;;;;;;2.34;72.47;101897.25;5134424;27;20030;-75
2021/03/17 01:26:42;;;;;;;7.82;4.53;;;;;;;2.32;71.71;101895.75;5135322;27;20022;-75
2021/03/17 01:29:08;;;;;;;5.63;4.30;;;;;;;2.29;72.08;101902.38;5134470;27;20031;-75
2021/03/17 01:31:33;;;;;;;12.68;4.90;;;;;;;2.28;72.62;101905.25;5133598;27;20019;-76
2021/03/17 01:33:58;;;;;;;8.18;5.00;;;;;;;2.29;71.98;101904.22;5117139;27;20486;-77
2021/03/17 01:36:24;;;;;;;9.43;4.70;;;;;;;2.29;72.28;101904.22;5135089;27;20023;-75
2021/03/17 01:38:49;;;;;;;8.65;4.95;;;;;;;2.31;72.66;101905.69;5122122;27;20048;-79
2021/03/17 01:41:15;;;;;;;7.22;4.13;;;;;;;2.35;72.34;101908.88;5134900;27;20100;-75
2021/03/17 01:43:40;;;;;;;8.18;4.38;;;;;;;2.37;73.22;101906.78;5131897;27;20026;-76
2021/03/17 01:46:06;;;;;;;9.30;4.82;;;;;;;2.37;72.54;101896.03;5116667;27;20488;-75
2021/03/17 01:48:31;;;;;;;8.02;4.22;;;;;;;2.41;72.42;101905.41;5110988;27;20038;-76
2021/03/17 01:50:57;;;;;;;8.55;3.80;;;;;;;2.41;72.89;101898.16;5133108;27;20023;-77
2021/03/17 01:53:28;;;;;;;8.02;3.55;;;;;;;2.45;72.31;101909.34;5115175;27;20039;-75
2021/03/17 01:55:53;;;;;;;10.10;3.78;;;;;;;2.48;72.67;101905.44;5116810;27;20413;-76
2021/03/17 01:58:19;;;;;;;7.43;3.20;;;;;;;2.49;73.16;101905.28;5097683;27;20039;-75
2021/03/17 02:00:45;;;;;;;5.10;2.70;;;;;;;2.52;73.02;101912.94;5090955;27;20038;-76
2021/03/17 02:03:10;;;;;;;4.65;3.33;;;;;;;2.55;72.97;101912.56;5131653;27;20481;-75
2021/03/17 02:05:44;;;;;;;3.90;2.60;;;;;;;2.59;72.86;101915.69;5116716;27;20448;-76
2021/03/17 02:08:12;;;;;;;4.45;2.45;;;;;;;2.62;73.30;101921.53;5097310;27;20095;-76
2021/03/17 02:10:37;;;;;;;4.32;2.60;;;;;;;2.66;73.10;101916.59;5116297;27;20023;-76
2021/03/17 02:13:02;;;;;;;3.67;2.03;;;;;;;2.69;72.77;101921.59;5114883;27;20023;-75
2021/03/17 02:15:49;;;;;;;4.82;2.47;;;;;;;2.74;72.96;101919.16;5134432;27;20026;-75
2021/03/17 02:18:25;;;;;;;4.00;2.63;;;;;;;2.78;73.46;101924.97;5126310;27;20027;-76
2021/03/17 02:21:03;;;;;;;4.32;2.58;;;;;;;2.81;73.45;101916.50;5089174;28;20032;-76
2021/03/17 02:23:46;;;;;;;4.80;2.60;;;;;;;2.84;73.46;101913.44;5132225;27;20031;-76
2021/03/17 02:26:30;;;;;;;5.25;2.90;;;;;;;2.87;73.57;101915.75;5118427;27;20046;-75
2021/03/17 02:29:30;;;;;;;3.70;2.28;;;;;;;2.88;73.04;101912.84;5126543;27;20035;-76
2021/03/17 02:32:09;;;;;;;6.82;2.33;;;;;;;2.90;73.16;101909.97;5118867;27;20054;-76
2021/03/17 02:34:41;;;;;;;2.80;2.03;;;;;;;2.93;73.48;101912.28;5099726;27;20027;-76
2021/03/17 02:37:08;;;;;;;4.10;2.03;;;;;;;2.97;73.65;101912.69;5115467;27;20027;-75
2021/03/17 02:39:41;;;;;;;2.22;1.73;;;;;;;3.02;73.95;101911.09;5116067;27;20037;-76
2021/03/17 02:42:27;;;;;;;3.72;1.70;;;;;;;3.07;73.72;101911.34;5113504;27;20092;-75
2021/03/17 02:45:06;;;;;;;2.38;1.48;;;;;;;3.11;73.72;101915.31;5114702;27;20046;-76
2021/03/17 02:47:33;;;;;;;2.42;1.52;;;;;;;3.14;73.50;101914.09;5116142;27;20035;-76
2021/03/17 02:50:00;;;;;;;2.13;1.10;;;;;;;3.14;73.38;101907.84;5132534;27;20098;-75
2021/03/17 02:52:26;;;;;;;3.75;1.52;;;;;;;3.17;73.60;101912.88;5085982;27;20106;-76
2021/03/17 02:54:52;;;;;;;2.65;1.48;;;;;;;3.16;73.28;101911.19;5097116;27;20023;-77
2021/03/17 02:57:18;;;;;;;2.70;1.30;;;;;;;3.18;73.37;101912.66;5097564;27;20027;-76
2021/03/17 02:59:44;;;;;;;2.28;1.20;;;;;;;3.20;73.85;101916.00;5094936;28;20068;-75
2021/03/17 03:02:10;;;;;;;5.25;2.40;;;;;;;3.24;73.21;101917.25;5089032;27;20106;-76
2021/03/17 03:04:36;;;;;;;4.68;2.08;;;;;;;3.24;73.06;101930.72;5098187;27;20023;-76
2021/03/17 03:07:01;;;;;;;4.82;2.03;;;;;;;3.21;73.66;101930.28;5114281;27;20019;-76
2021/03/17 03:09:27;;;;;;;2.47;1.85;;;;;;;3.17;73.49;101934.44;5113012;27;20015;-76
2021/03/17 03:11:54;;;;;;;5.10;2.08;;;;;;;3.11;73.57;101931.47;5114152;27;20433;-77
2021/03/17 03:14:23;;;;;;;3.72;2.10;;;;;;;3.08;73.29;101931.88;5132304;27;20518;-76
2021/03/17 03:16:49;;;;;;;3.25;2.03;;;;;;;3.06;73.35;101935.78;5114134;27;20434;-76
2021/03/17 03:19:15;;;;;;;2.33;1.70;;;;;;;3.01;73.54;101928.28;5097075;27;20103;-76
2021/03/17 03:21:40;;;;;;;3.38;1.92;;;;;;;2.98;73.64;101939.47;5113923;27;20026;-76
2021/03/17 03:24:06;;;;;;;3.42;1.90;;;;;;;2.95;73.48;101939.84;5107772;27;20023;-75
2021/03/17 03:26:32;;;;;;;7.22;1.92;;;;;;;2.92;73.55;101937.56;5094598;28;20426;-76
2021/03/17 03:28:58;;;;;;;3.50;2.03;;;;;;;2.91;73.94;101946.66;5092988;28;20026;-76
2021/03/17 03:31:23;;;;;;;2.75;1.42;;;;;;;2.92;74.01;101948.31;5095630;27;20023;-76
2021/03/17 03:33:49;;;;;;;5.30;2.08;;;;;;;2.94;73.58;101940.03;5092731;28;20380;-76
2021/03/17 03:36:14;;;;;;;2.65;1.95;;;;;;;2.92;73.71;101942.94;5109070;27;20076;-74
2021/03/17 03:38:39;;;;;;;2.50;1.58;;;;;;;2.91;73.60;101941.25;5113995;28;20027;-76
2021/03/17 03:41:05;;;;;;;3.15;2.03;;;;;;;2.87;73.69;101945.38;5133111;27;20019;-75
2021/03/17 03:43:30;;;;;;;4.80;1.38;;;;;;;2.84;74.08;101945.78;5112957;27;20027;-77
2021/03/17 03:45:56;;;;;;;4.45;1.80;;;;;;;2.79;73.61;101949.03;5114235;28;20046;-74
2021/03/17 03:48:22;;;;;;;3.67;1.70;;;;;;;2.77;74.09;101944.88;5131259;28;20030;-76
2021/03/17 03:50:48;;;;;;;4.07;1.73;;;;;;;2.74;74.08;101946.09;5094366;28;20023;-76
2021/03/17 03:53:19;;;;;;;3.03;1.63;;;;;;;2.73;74.56;101951.66;5106400;28;20023;-76
2021/03/17 03:55:51;;;;;;;2.83;1.90;;;;;;;2.71;73.88;101945.66;5132840;28;20041;-76
2021/03/17 03:58:42;;;;;;;3.03;2.00;;;;;;;2.67;74.18;101947.88;5096249;28;20102;-76
2021/03/17 04:01:12;;;;;;;3.40;1.98;;;;;;;2.66;73.94;101949.72;5097597;27;20030;-78
2021/03/17 04:03:42;;;;;;;2.65;1.80;;;;;;;2.63;74.05;101944.75;5090278;28;20062;-75
2021/03/17 04:06:11;;;;;;;2.53;1.92;;;;;;;2.63;73.67;101949.31;5100820;27;20042;-76
2021/03/17 04:08:41;;;;;;;3.95;2.33;;;;;;;2.63;74.09;101950.13;5101804;27;20172;-76
2021/03/17 04:11:06;;;;;;;4.55;2.17;;;;;;;2.63;74.20;101952.00;5101370;27;20639;-77
2021/03/17 04:13:32;;;;;;;4.40;2.22;;;;;;;2.62;74.28;101953.84;5099126;27;20026;-77
2021/03/17 04:15:58;;;;;;;5.43;2.15;;;;;;;2.62;74.52;101951.16;5116187;27;20116;-77
2021/03/17 04:18:26;;;;;;;4.90;2.75;;;;;;;2.62;74.05;101948.47;5117514;27;20486;-76
2021/03/17 04:20:53;;;;;;;4.47;2.33;;;;;;;2.65;74.76;101955.34;5098254;28;20035;-77
2021/03/17 04:23:20;;;;;;;4.70;2.20;;;;;;;2.62;74.16;101948.47;5097913;27;20023;-77
2021/03/17 04:25:47;;;;;;;4.35;1.92;;;;;;;2.63;74.80;101958.19;5118205;27;20460;-77
2021/03/17 04:28:14;;;;;;;5.68;2.63;;;;;;;2.62;74.69;101970.00;5135276;27;20369;-77
2021/03/17 04:30:40;;;;;;;3.55;2.10;;;;;;;2.60;74.23;101972.06;5097716;28;20233;-78
2021/03/17 04:33:05;;;;;;;4.95;2.08;;;;;;;2.59;74.34;101974.91;5111129;27;20178;-78
2021/03/17 04:35:30;;;;;;;3.05;1.88;;;;;;;2.58;74.37;101967.88;5101159;27;20075;-77
2021/03/17 04:37:56;;;;;;;5.20;2.88;;;;;;;2.58;74.70;101979.47;5133982;27;20031;-76
2021/03/17 04:40:21;;;;;;;4.57;2.20;;;;;;;2.57;74.62;101977.00;5116935;27;20019;-78
2021/03/17 04:42:47;;;;;;;3.22;1.98;;;;;;;2.56;74.40;101981.53;5114231;27;20430;-78
2021/03/17 04:45:13;;;;;;;2.92;1.75;;;;;;;2.56;74.54;101976.13;5117877;27;20060;-77
2021/03/17 04:47:39;;;;;;;2.80;1.60;;;;;;;2.56;74.95;101981.53;5111835;28;20489;-77
2021/03/17 04:50:05;;;;;;;3.15;1.83;;;;;;;2.56;74.79;101989.59;5114522;28;20039;-77
2021/03/17 04:52:31;;;;;;;3.38;1.92;;;;;;;2.56;74.82;101976.13;5111786;28;20029;-77
2021/03/17 04:54:56;;;;;;;3.38;1.83;;;;;;;2.57;74.56;101977.81;5079574;28;20039;-77
2021/03/17 04:57:24;;;;;;;3.00;1.60;;;;;;;2.58;74.92;101990.25;5097135;28;20015;-77
2021/03/17 04:59:49;;;;;;;2.40;1.55;;;;;;;2.58;74.94;101984.88;5114501;28;20538;-76
2021/03/17 05:02:18;;;;;;;2.53;1.50;;;;;;;2.59;75.05;101991.06;5113275;28;20031;-77
2021/03/17 05:04:44;;;;;;;2.60;1.30;;;;;;;2.59;75.00;101985.69;5094007;28;20160;-78
2021/03/17 05:07:10;;;;;;;2.28;1.30;;;;;;;2.58;74.77;101995.63;5097359;28;20031;-77
2021/03/17 05:09:35;;;;;;;3.40;1.42;;;;;;;2.56;74.83;101981.53;5093849;28;20033;-77
2021/03/17 05:12:03;;;;;;;5.10;1.45;;;;;;;2.55;74.77;101990.63;5096965;28;20027;-78
2021/03/17 05:14:29;;;;;;;3.58;1.50;;;;;;;2.54;75.25;101988.97;5110548;28;20019;-77
2021/03/17 05:16:54;;;;;;;3.28;1.77;;;;;;;2.53;75.14;101989.97;5113231;28;20039;-77
2021/03/17 05:19:20;;;;;;;4.13;1.45;;;;;;;2.53;74.88;101995.38;5111997;28;20023;-77
2021/03/17 05:21:45;;;;;;;2.50;1.45;;;;;;;2.53;75.27;101998.06;5113536;28;20020;-77
2021/03/17 05:24:12;;;;;;;71.95;18.85;;;;;;;2.51;74.91;101997.44;5094185;28;20480;-77
2021/03/17 05:26:38;;;;;;;9.65;3.67;;;;;;;2.51;75.02;102005.50;5113584;28;20137;-78
2021/03/17 05:29:03;;;;;;;5.45;2.20;;;;;;;2.50;75.15;102003.81;5095814;28;20031;-76
2021/03/17 05:31:28;;;;;;;3.92;2.10;;;;;;;2.51;74.98;102004.66;5096725;28;20500;-78
2021/03/17 05:33:54;;;;;;;5.68;2.03;;;;;;;2.48;75.62;102005.88;5095270;28;20023;-75
2021/03/17 05:36:19;;;;;;;3.97;1.80;;;;;;;2.47;74.72;102017.66;5113466;28;20031;-75
2021/03/17 05:38:45;;;;;;;5.20;2.30;;;;;;;2.44;75.23;102020.75;5112359;28;20064;-75
2021/03/17 05:41:10;;;;;;;5.22;2.05;;;;;;;2.44;75.32;102026.13;5112477;27;20031;-78
2021/03/17 05:43:36;;;;;;;8.55;2.28;;;;;;;2.43;75.23;102027.16;5094204;28;20028;-78
2021/03/17 05:46:05;;;;;;;5.20;2.30;;;;;;;2.43;75.13;102025.31;5079494;28;20036;-77
2021/03/17 05:48:32;;;;;;;6.22;2.05;;;;;;;2.44;75.31;102036.91;5113294;28;20418;-78
2021/03/17 05:50:58;;;;;;;3.75;1.70;;;;;;;2.43;75.37;102030.69;5096264;28;20020;-79
2021/03/17 05:53:24;;;;;;;4.28;1.60;;;;;;;2.42;75.25;102036.25;5111061;28;20026;-78
2021/03/17 05:55:49;;;;;;;2.80;1.30;;;;;;;2.42;75.36;102044.31;5110957;28;20020;-77
2021/03/17 05:58:15;;;;;;;3.03;1.45;;;;;;;2.41;74.98;102045.34;5093552;28;20374;-77
2021/03/17 06:00:40;;;;;;;3.00;1.15;;;;;;;2.39;75.29;102039.31;5111319;28;20028;-77
2021/03/17 06:03:06;;;;;;;3.20;2.65;;;;;;;2.39;75.15;102044.69;5111833;28;20027;-77
2021/03/17 06:05:31;;;;;;;3.20;1.90;;;;;;;2.39;74.90;102047.38;5096049;28;20024;-77
2021/03/17 06:08:02;;;;;;;2.15;0.93;;;;;;;2.39;74.54;102042.84;5113352;28;20077;-78
2021/03/17 06:10:27;;;;;;;4.65;1.38;;;;;;;2.39;74.78;102047.38;5108261;28;20065;-78
2021/03/17 06:13:02;;;;;;;2.05;1.40;;;;;;;2.40;74.79;102051.75;5112677;28;20440;-79
2021/03/17 06:15:28;;;;;;;3.15;1.10;;;;;;;2.42;74.07;102055.09;5112525;28;20027;-78
2021/03/17 06:17:58;;;;;;;3.35;1.42;;;;;;;2.43;74.61;102060.28;5113517;28;20019;-77
2021/03/17 06:20:24;;;;;;;2.60;1.25;;;;;;;2.46;74.23;102061.78;5095512;28;20061;-77
2021/03/17 06:22:49;;;;;;;3.35;1.00;;;;;;;2.49;73.58;102060.56;5091900;28;20027;-77
2021/03/17 06:25:15;;;;;;;2.58;1.05;;;;;;;2.49;74.07;102063.25;5104152;28;20125;-78
2021/03/17 06:27:41;;;;;;;2.15;1.05;;;;;;;2.48;73.45;102075.84;5106591;28;20095;-76
2021/03/17 06:30:08;;;;;;;1.60;1.08;;;;;;;2.48;73.69;102069.66;5105025;28;20049;-76
2021/03/17 06:32:33;;;;;;;1.95;1.17;;;;;;;2.47;73.53;102074.19;5110647;28;20024;-76
2021/03/17 06:35:00;;;;;;;2.10;1.08;;;;;;;2.47;73.38;102071.50;5109909;28;20542;-78
2021/03/17 06:37:38;;;;;;;3.22;1.20;;;;;;;2.48;73.07;102078.53;5105772;28;20108;-77
2021/03/17 06:40:18;;;;;;;3.15;1.20;;;;;;;2.48;73.35;102073.16;5106499;28;20023;-76
2021/03/17 06:42:43;;;;;;;2.08;1.42;;;;;;;2.48;73.39;102075.84;5107807;28;20028;-75
2021/03/17 06:45:09;;;;;;;3.20;1.35;;;;;;;2.48;73.14;102083.94;5108907;28;20019;-76
2021/03/17 06:47:35;;;;;;;3.60;1.17;;;;;;;2.48;73.29;102086.63;5107653;28;20054;-77
2021/03/17 06:50:02;;;;;;;2.28;1.17;;;;;;;2.49;73.19;102087.47;5108771;28;20385;-76
2021/03/17 06:52:30;;;;;;;2.55;1.00;;;;;;;2.45;72.94;102081.63;5091156;28;20031;-76
2021/03/17 06:55:08;;;;;;;4.45;1.35;;;;;;;2.45;72.74;102081.63;5105994;28;20030;-75
2021/03/17 06:57:38;;;;;;;2.50;1.10;;;;;;;2.44;72.55;102088.03;5103622;28;20092;-77
2021/03/17 07:00:19;;;;;;;4.75;1.10;;;;;;;2.43;73.06;102089.06;5107977;28;20024;-76
2021/03/17 07:02:55;;;;;;;3.95;1.30;;;;;;;2.44;72.64;102090.72;5108253;28;20035;-76
2021/03/17 07:05:21;;;;;;;3.10;1.20;;;;;;;2.48;72.05;102096.56;5110347;28;20028;-76
2021/03/17 07:07:50;;;;;;;3.00;1.02;;;;;;;2.53;72.84;102102.22;5105359;28;20114;-78
2021/03/17 07:10:32;;;;;;;2.78;1.30;;;;;;;2.62;72.21;102110.03;5102330;28;20048;-77
2021/03/17 07:12:58;;;;;;;3.47;1.35;;;;;;;2.73;71.86;102100.63;5111750;28;20067;-77
2021/03/17 07:15:24;;;;;;;2.38;1.20;;;;;;;2.76;71.68;102116.41;5109326;28;20055;-79
2021/03/17 07:17:50;;;;;;;2.25;1.00;;;;;;;2.79;71.99;102115.19;5110917;28;20059;-76
2021/03/17 07:20:34;;;;;;;8.40;1.40;;;;;;;2.81;71.87;102113.09;5109218;28;20023;-76
2021/03/17 07:23:19;;;;;;;4.47;1.52;;;;;;;2.80;72.17;102120.38;5107275;28;20373;-78
2021/03/17 07:26:04;;;;;;;5.15;1.42;;;;;;;2.78;71.44;102119.75;5101456;28;20020;-78
2021/03/17 07:28:51;;;;;;;4.22;1.10;;;;;;;2.76;71.44;102131.72;5106844;28;20062;-78
2021/03/17 07:31:27;;;;;;;2.83;1.30;;;;;;;2.72;71.35;102130.41;5104362;28;20074;-79
2021/03/17 07:33:53;;;;;;;3.03;1.50;;;;;;;2.70;71.29;102138.69;5103210;28;20023;-78
2021/03/17 07:36:39;;;;;;;3.83;1.30;;;;;;;2.67;71.60;102145.28;5101657;28;20027;-78
2021/03/17 07:39:07;;;;;;;4.35;1.50;;;;;;;2.69;71.21;102141.56;5107558;28;20015;-78
2021/03/17 07:41:33;;;;;;;2.72;2.05;;;;;;;2.70;71.65;102137.84;5103237;28;20066;-78
2021/03/17 07:43:58;;;;;;;4.32;1.23;;;;;;;2.71;71.21;102139.53;5104118;28;20421;-78
2021/03/17 07:46:24;;;;;;;6.18;1.17;;;;;;;2.73;71.49;102132.94;5088313;28;20048;-78
2021/03/17 07:48:50;;;;;;;5.65;1.30;;;;;;;2.76;71.47;102132.56;5109603;28;20404;-78
2021/03/17 07:51:19;;;;;;;3.15;1.10;;;;;;;2.79;71.58;102147.50;5100650;28;20024;-85
2021/03/17 07:53:51;;;;;;;6.63;1.05;;;;;;;2.81;70.82;102140.91;5087190;28;20031;-82
2021/03/17 07:56:18;;;;;;;2.95;0.73;;;;;;;2.84;71.16;102145.91;5104288;28;20414;-84
2021/03/17 07:58:44;;;;;;;3.17;1.00;;;;;;;2.85;71.00;102150.25;5103270;28;20054;-84
2021/03/17 08:01:09;;;;;;;3.95;1.50;;;;;;;2.86;70.96;102148.41;5090152;28;20032;-84
2021/03/17 08:03:35;;;;;;;2.30;1.05;;;;;;;2.90;71.17;102155.09;5108490;28;20038;-82
2021/03/17 08:06:01;;;;;;;2.03;0.90;;;;;;;2.92;70.64;102157.56;5091041;28;20020;-81
2021/03/17 08:08:26;;;;;;;4.55;1.35;;;;;;;2.94;70.45;102156.38;5103666;28;20415;-83
2021/03/17 08:10:51;;;;;;;7.20;1.58;;;;;;;2.99;70.97;102158.50;5088640;28;20031;-80
2021/03/17 08:13:17;;;;;;;2.83;1.17;;;;;;;2.97;70.71;102161.38;5075536;28;20039;-82
2021/03/17 08:15:45;;;;;;;2.83;1.42;;;;;;;2.99;70.46;102159.34;5102648;28;20029;-83
2021/03/17 08:18:41;;;;;;;5.40;1.40;;;;;;;3.04;69.84;102167.69;5070016;28;20081;-82
2021/03/17 08:21:07;;;;;;;2.75;0.80;;;;;;;3.06;70.29;102160.25;5086946;28;20391;-83
2021/03/17 08:23:50;;;;;;;2.90;1.27;;;;;;;3.09;70.17;102170.66;5106801;28;20016;-83
2021/03/17 08:26:21;;;;;;;3.80;1.15;;;;;;;3.16;69.29;102180.66;5100305;28;20024;-83
2021/03/17 08:28:51;;;;;;;4.53;1.35;;;;;;;3.21;69.62;102175.53;5108151;28;20077;-82
2021/03/17 08:31:38;;;;;;;4.95;0.90;;;;;;;3.26;69.46;102178.50;5104982;28;20035;-83
2021/03/17 08:34:18;;;;;;;3.10;1.17;;;;;;;3.32;69.29;102186.66;5107809;28;20055;-81
2021/03/17 08:37:04;;;;;;;2.75;1.50;;;;;;;3.37;69.20;102175.28;5108640;28;20530;-83
2021/03/17 08:39:33;;;;;;;5.03;1.98;;;;;;;3.43;69.12;102188.00;5101836;28;20066;-83
2021/03/17 08:42:01;;;;;;;5.50;1.65;;;;;;;3.46;69.15;102184.91;5108782;28;20806;-84
2021/03/17 08:44:45;;;;;;;4.88;1.70;;;;;;;3.50;69.07;102188.91;5108332;28;20503;-81
2021/03/17 08:47:20;;;;;;;5.28;1.13;;;;;;;3.58;68.90;102182.56;5101922;28;20047;-82
2021/03/17 08:49:47;;;;;;;3.85;0.80;;;;;;;3.64;69.09;102191.75;5113004;28;20106;-83
2021/03/17 08:52:16;;;;;;;3.90;1.10;;;;;;;3.68;68.87;102193.00;5114219;28;20019;-82
2021/03/17 08:54:46;;;;;;;5.82;1.08;;;;;;;3.71;68.22;102189.91;5108917;28;20031;-83
2021/03/17 08:57:13;;;;;;;5.28;1.20;;;;;;;3.77;68.52;102197.25;5091905;28;20100;-84
2021/03/17 08:59:52;;;;;;;5.55;0.85;;;;;;;3.84;68.26;102200.00;5106569;27;20024;-84
2021/03/17 09:02:27;;;;;;;2.47;0.65;;;;;;;3.87;67.86;102202.31;5111548;28;20085;-84
2021/03/17 09:05:19;;;;;;;4.78;1.70;;;;;;;3.92;67.41;102203.41;5114155;28;20108;-83
2021/03/17 09:08:30;;;;;;;5.82;1.48;;;;;;;4.00;67.13;102199.72;5091192;28;20027;-84
2021/03/17 09:10:55;;;;;;;2.42;1.23;;;;;;;4.06;66.86;102201.63;5056681;28;20698;-84
2021/03/17 09:13:49;;;;;;;2.80;1.10;;;;;;;4.05;66.21;102202.69;5060440;28;20028;-84
2021/03/17 09:16:14;;;;;;;2.45;0.80;;;;;;;4.11;66.22;102198.38;5075319;28;20410;-85
2021/03/17 09:18:40;;;;;;;3.78;0.77;;;;;;;4.20;66.41;102199.88;5107145;28;20031;-83
2021/03/17 09:21:06;;;;;;;3.30;0.50;;;;;;;4.28;65.96;102202.41;5114879;28;20028;-82
2021/03/17 09:23:37;;;;;;;4.50;1.00;;;;;;;4.34;65.12;102200.81;5112637;28;20023;-84
2021/03/17 09:26:03;;;;;;;1.15;0.75;;;;;;;4.44;65.38;102198.59;5111499;28;20047;-83
2021/03/17 09:28:29;;;;;;;3.20;0.55;;;;;;;4.53;64.45;102204.66;5109533;28;20386;-83
2021/03/17 09:30:55;;;;;;;2.45;0.60;;;;;;;4.61;64.23;102204.50;5109164;28;20024;-83
2021/03/17 09:33:21;;;;;;;3.85;0.85;;;;;;;4.68;64.19;102208.09;5113603;28;20039;-84
2021/03/17 09:36:08;;;;;;;2.83;0.85;;;;;;;4.76;63.54;102205.22;5111199;28;20027;-82
2021/03/17 09:38:41;;;;;;;3.67;0.50;;;;;;;4.86;63.05;102194.88;5093027;28;20023;-84
2021/03/17 09:41:12;;;;;;;0.80;0.47;;;;;;;4.94;63.17;102195.72;5110317;28;20020;-82
2021/03/17 09:43:51;;;;;;;1.23;0.40;;;;;;;5.01;62.41;102196.59;5102394;28;20024;-85
2021/03/17 09:46:23;;;;;;;2.63;0.82;;;;;;;5.10;62.23;102200.78;5109306;27;20296;-83
2021/03/17 09:48:49;;;;;;;2.83;0.70;;;;;;;5.16;61.87;102197.28;5112545;28;20032;-84
2021/03/17 09:51:24;;;;;;;3.72;0.40;;;;;;;5.21;61.16;102194.81;5113403;28;20392;-83
2021/03/17 09:53:50;;;;;;;1.50;0.50;;;;;;;5.32;61.20;102199.63;5093750;28;20034;-84
2021/03/17 09:56:15;;;;;;;1.58;0.32;;;;;;;5.44;60.94;102202.56;5114025;28;20661;-85
2021/03/17 09:58:41;;;;;;;2.15;0.60;;;;;;;5.51;60.77;102208.81;5111920;28;20098;-82
2021/03/17 10:01:07;;;;;;;1.48;0.52;;;;;;;5.59;60.46;102213.19;5108438;28;20032;-84
2021/03/17 10:03:33;;;;;;;3.45;0.65;;;;;;;5.65;60.01;102206.97;5085878;27;20019;-83
2021/03/17 10:05:58;;;;;;;1.67;0.80;;;;;;;5.70;59.93;102207.19;5109845;28;20080;-84
2021/03/17 10:08:24;;;;;;;2.80;0.60;;;;;;;5.76;59.61;102210.94;5111791;28;20024;-82
2021/03/17 10:10:49;;;;;;;4.05;0.90;;;;;;;5.81;59.38;102207.59;5095019;28;20365;-84
2021/03/17 10:13:15;;;;;;;10.73;2.75;;;;;;;5.85;58.97;102214.28;5111650;28;20369;-82
2021/03/17 10:15:41;;;;;;;1.27;0.82;;;;;;;5.85;58.78;102225.09;5114551;28;20036;-81
2021/03/17 10:18:06;;;;;;;2.70;0.80;;;;;;;5.94;58.66;102218.47;5110113;28;20024;-83
2021/03/17 10:20:31;;;;;;;3.22;0.82;;;;;;;6.00;58.45;102218.47;5112004;28;20496;-83
2021/03/17 10:22:59;;;;;;;7.05;1.00;;;;;;;6.07;58.39;102217.63;5112253;28;20024;-83
2021/03/17 10:25:26;;;;;;;2.30;0.80;;;;;;;6.15;58.19;102220.97;5109159;27;20055;-79
2021/03/17 10:28:06;;;;;;;4.63;1.02;;;;;;;6.28;58.09;102227.44;5092834;28;20022;-76
2021/03/17 10:30:35;;;;;;;2.83;0.80;;;;;;;6.43;57.76;102222.59;5107201;28;20023;-76
2021/03/17 10:33:01;;;;;;;4.95;0.70;;;;;;;6.51;57.00;102230.50;5112300;27;20038;-76
2021/03/17 10:35:27;;;;;;;1.13;0.70;;;;;;;6.50;56.75;102228.03;5109842;28;20051;-79
2021/03/17 10:37:53;;;;;;;3.35;0.68;;;;;;;6.55;56.56;102226.34;5111379;28;20042;-76
2021/03/17 10:40:23;;;;;;;2.78;0.50;;;;;;;6.69;56.54;102226.31;5094033;28;20020;-76
2021/03/17 10:42:52;;;;;;;3.13;0.80;;;;;;;6.82;56.07;102232.53;5112453;28;20100;-75
2021/03/17 10:45:24;;;;;;;1.58;0.35;;;;;;;6.93;55.78;102228.34;5109527;28;20032;-76
2021/03/17 10:47:50;;;;;;;1.75;0.50;;;;;;;7.02;55.72;102237.06;5129101;27;20039;-74
2021/03/17 10:50:33;;;;;;;2.83;0.50;;;;;;;7.22;55.59;102236.97;5130146;27;20054;-76
2021/03/17 10:52:58;;;;;;;4.03;0.60;;;;;;;7.39;55.18;102235.41;5109154;27;20060;-76
2021/03/17 10:55:25;;;;;;;7.53;0.60;;;;;;;7.55;54.23;102237.63;5131471;27;20035;-75
2021/03/17 10:57:51;;;;;;;3.50;0.50;;;;;;;7.66;54.35;102230.66;5100822;27;20030;-75
2021/03/17 11:00:22;;;;;;;1.27;0.50;;;;;;;7.78;53.60;102238.94;5108771;27;20027;-74
2021/03/17 11:02:47;;;;;;;2.83;0.50;;;;;;;7.84;53.23;102248.94;5131411;27;20027;-74
2021/03/17 11:05:36;;;;;;;1.85;0.60;;;;;;;7.90;53.41;102250.75;5095737;27;20097;-75
2021/03/17 11:08:10;;;;;;;1.73;0.50;;;;;;;8.03;52.66;102254.44;5132245;27;20110;-75
2021/03/17 11:10:41;;;;;;;4.28;0.50;;;;;;;8.08;52.59;102257.34;5112272;28;20027;-74
2021/03/17 11:13:09;;;;;;;4.20;0.82;;;;;;;8.12;52.08;102253.94;5127448;27;20090;-74
2021/03/17 11:15:34;;;;;;;2.90;0.40;;;;;;;8.10;51.78;102255.19;5118173;27;20024;-74
2021/03/17 11:18:00;;;;;;;2.08;0.47;;;;;;;8.16;51.62;102254.34;5111689;27;20038;-74
2021/03/17 11:20:26;;;;;;;0.85;0.43;;;;;;;8.18;50.36;102257.66;5129714;27;20027;-75
2021/03/17 11:22:52;;;;;;;3.75;0.45;;;;;;;8.20;50.09;102258.25;5112847;27;20053;-74
2021/03/17 11:25:24;;;;;;;3.92;0.35;;;;;;;8.40;50.19;102258.13;5105678;28;20036;-75
2021/03/17 11:27:50;;;;;;;;;;;;;;;8.47;50.14;102250.75;5113054;27;20047;-75
2021/03/17 11:30:16;;;;;;;2.05;0.30;;;;;;;8.50;49.60;102249.47;5129137;27;20381;-75
2021/03/17 11:32:41;;;;;;;1.27;0.38;;;;;;;8.55;49.42;102258.59;5131136;27;20361;-74
2021/03/17 11:35:07;;;;;;;1.92;0.38;;;;;;;8.64;48.64;102256.44;5128913;27;20105;-74
2021/03/17 11:37:32;;;;;;;3.42;0.50;;;;;;;8.65;48.24;102258.09;5128336;27;20536;-74
2021/03/17 11:39:58;;;;;;;0.30;0.30;;;;;;;8.74;47.95;102255.91;5108591;27;20486;-74
2021/03/17 11:42:23;;;;;;;0.75;0.50;;;;;;;8.85;47.84;102269.59;5127106;27;20031;-79